createdAt,value
2019-02-28T00:01:13.552Z,27.54
2019-02-28T00:06:34.739Z,26.08
2019-02-28T00:11:36.093Z,27.55
2019-02-28T00:16:22.368Z,25.63
2019-02-28T00:26:33.530Z,26.88
2019-02-28T00:31:54.733Z,27.20
2019-02-28T00:51:45.362Z,26.68
2019-02-28T00:57:06.427Z,27.61
2019-02-28T01:02:07.381Z,27.43
2019-02-28T01:06:55.799Z,27.77
2019-02-28T01:12:03.929Z,27.83
2019-02-28T01:17:12.159Z,26.29
2019-02-28T01:22:33.274Z,27.27
2019-02-28T01:27:20.906Z,28.56
2019-02-28T01:32:27.861Z,27.46
2019-02-28T01:37:35.224Z,28.24
2019-02-28T01:42:42.426Z,27.77
2019-02-28T01:47:51.775Z,27.81
2019-02-28T01:53:09.799Z,27.76
2019-02-28T01:58:11.179Z,28.21
2019-02-28T02:03:11.373Z,27.97
2019-02-28T02:07:58.542Z,26.52
2019-02-28T02:13:06.734Z,27.11
2019-02-28T02:18:28.308Z,26.70
2019-02-28T02:23:18.087Z,27.15
2019-02-28T02:28:35.943Z,27.11
2019-02-28T02:33:23.096Z,27.42
2019-02-28T02:38:31.370Z,27.29
2019-02-28T02:43:39.636Z,28.04
2019-02-28T02:48:47.025Z,26.81
2019-02-28T02:53:54.266Z,26.32
2019-02-28T02:59:02.293Z,26.69
2019-02-28T03:04:08.812Z,27.73
2019-02-28T03:14:17.903Z,27.90
2019-02-28T03:19:32.790Z,26.64
2019-02-28T03:24:50.684Z,25.71
2019-02-28T03:29:35.253Z,27.44
2019-02-28T03:34:55.006Z,25.70
2019-02-28T03:39:49.822Z,26.49
2019-02-28T03:44:58.199Z,25.69
2019-02-28T03:50:05.255Z,26.13
2019-02-28T03:55:13.489Z,25.90
2019-02-28T04:00:20.831Z,25.77
2019-02-28T04:05:28.409Z,24.25
2019-02-28T04:10:35.297Z,25.48
2019-02-28T04:16:01.441Z,24.68
2019-02-28T04:20:50.819Z,23.75
2019-02-28T04:25:58.003Z,24.81
2019-02-28T04:31:05.532Z,24.63
2019-02-28T04:36:12.584Z,26.66
2019-02-28T04:41:20.910Z,25.27
2019-02-28T04:46:31.765Z,25.53
2019-02-28T04:51:37.059Z,24.88
2019-02-28T04:56:45.490Z,25.24
2019-02-28T05:01:50.595Z,25.12
2019-02-28T05:06:57.814Z,28.48
2019-02-28T05:12:06.095Z,28.76
2019-02-28T05:17:13.230Z,27.37
2019-02-28T05:22:20.583Z,27.33
2019-02-28T05:27:27.814Z,27.79
2019-02-28T05:32:35.742Z,26.73
2019-02-28T05:37:46.515Z,26.83
2019-02-28T05:42:49.712Z,28.25
2019-02-28T05:47:56.768Z,27.44
2019-02-28T05:53:06.270Z,28.71
2019-02-28T05:58:25.097Z,33.62
2019-02-28T06:03:29.553Z,32.88
2019-02-28T06:08:13.661Z,31.07
2019-02-28T06:13:20.939Z,31.68
2019-02-28T06:18:32.512Z,29.75
2019-02-28T06:23:36.432Z,38.13
2019-02-28T06:28:44.490Z,33.50
2019-02-28T06:33:54.591Z,35.37
2019-02-28T06:39:13.301Z,34.26
2019-02-28T06:44:13.605Z,33.22
2019-02-28T06:49:06.961Z,33.69
2019-02-28T06:54:23.857Z,40.05
2019-02-28T07:04:15.255Z,39.58
2019-02-28T07:09:21.882Z,34.49
2019-02-28T07:14:30.343Z,34.28
2019-02-28T07:19:37.655Z,36.21
2019-02-28T07:24:45.953Z,43.15
2019-02-28T07:29:53.079Z,44.65
2019-02-28T07:35:01.479Z,43.00
2019-02-28T07:40:08.586Z,40.99
2019-02-28T07:45:16.986Z,44.65
2019-02-28T07:50:25.237Z,47.53
2019-02-28T07:55:45.495Z,53.00
2019-02-28T08:00:48.425Z,57.17
2019-02-28T08:05:46.781Z,54.02
2019-02-28T08:10:35.258Z,59.11
2019-02-28T08:15:43.633Z,63.35
2019-02-28T08:20:50.983Z,62.42
2019-02-28T08:25:58.395Z,64.73
2019-02-28T08:31:05.660Z,67.47
2019-02-28T08:36:13.072Z,64.01
2019-02-28T08:41:22.598Z,64.06
2019-02-28T08:46:27.821Z,65.21
2019-02-28T08:51:35.025Z,65.33
2019-02-28T08:56:42.432Z,65.58
2019-02-28T09:01:50.493Z,62.34
2019-02-28T09:06:58.730Z,63.36
2019-02-28T09:12:05.931Z,63.86
2019-02-28T09:17:15.496Z,64.31
2019-02-28T09:22:20.601Z,66.19
2019-02-28T09:27:27.857Z,64.19
2019-02-28T09:32:36.098Z,64.66
2019-02-28T09:37:43.356Z,65.97
2019-02-28T09:42:51.961Z,65.06
2019-02-28T09:48:02.029Z,63.64
2019-02-28T09:53:05.972Z,65.61
2019-02-28T09:58:29.310Z,62.71
2019-02-28T10:03:15.509Z,63.43
2019-02-28T10:08:21.959Z,66.09
2019-02-28T10:13:42.092Z,64.61
2019-02-28T10:18:29.713Z,62.05
2019-02-28T10:23:36.802Z,61.83
2019-02-28T10:28:45.193Z,66.43
2019-02-28T10:33:53.127Z,64.15
2019-02-28T10:39:12.757Z,61.53
2019-02-28T10:43:59.855Z,62.03
2019-02-28T10:49:08.182Z,60.83
2019-02-28T10:54:15.415Z,56.06
2019-02-28T10:59:35.696Z,57.57
2019-02-28T11:04:23.886Z,55.07
2019-02-28T11:09:32.402Z,51.24
2019-02-28T11:14:39.623Z,52.57
2019-02-28T11:19:48.535Z,54.39
2019-02-28T11:24:54.037Z,50.64
2019-02-28T11:30:02.271Z,55.51
2019-02-28T11:35:10.411Z,54.64
2019-02-28T11:40:21.030Z,54.78
2019-02-28T11:45:41.246Z,51.54
2019-02-28T11:50:28.628Z,60.66
2019-02-28T11:55:35.816Z,61.46
2019-02-28T12:00:44.178Z,66.02
2019-02-28T12:05:52.318Z,63.07
2019-02-28T12:11:01.887Z,64.34
2019-02-28T12:16:07.710Z,63.61
2019-02-28T12:21:27.902Z,64.45
2019-02-28T12:31:21.571Z,63.04
2019-02-28T12:41:25.178Z,65.28
2019-02-28T12:46:31.810Z,61.61
2019-02-28T12:52:49.000Z,74.34
2019-02-28T12:57:51.780Z,60.96
2019-02-28T13:02:58.757Z,60.01
2019-02-28T13:08:07.091Z,60.15
2019-02-28T13:13:14.404Z,59.18
2019-02-28T13:18:34.521Z,57.59
2019-02-28T13:23:21.861Z,60.50
2019-02-28T13:28:41.857Z,59.97
2019-02-28T13:33:30.238Z,61.57
2019-02-28T13:38:37.415Z,60.21
2019-02-28T13:44:51.608Z,73.87
2019-02-28T13:50:11.582Z,61.05
2019-02-28T13:54:59.816Z,61.64
2019-02-28T14:00:08.943Z,57.57
2019-02-28T14:05:15.309Z,51.02
2019-02-28T14:10:23.597Z,53.73
2019-02-28T14:15:30.715Z,49.81
2019-02-28T14:20:38.947Z,54.21
2019-02-28T14:25:46.097Z,50.37
2019-02-28T14:30:57.253Z,49.27
2019-02-28T14:36:01.734Z,46.84
2019-02-28T14:41:09.793Z,46.38
2019-02-28T14:46:18.307Z,47.48
2019-02-28T14:51:38.191Z,49.94
2019-02-28T14:56:26.484Z,48.72
2019-02-28T15:01:34.575Z,49.53
2019-02-28T15:06:41.716Z,48.77
2019-02-28T15:11:49.909Z,48.16
2019-02-28T15:16:57.219Z,45.42
2019-02-28T15:22:17.623Z,46.49
2019-02-28T15:27:05.462Z,48.49
2019-02-28T15:32:14.243Z,51.81
2019-02-28T15:37:21.952Z,51.63
2019-02-28T15:42:29.234Z,50.41
2019-02-28T15:47:39.818Z,48.95
2019-02-28T15:57:39.023Z,50.68
2019-02-28T16:02:59.745Z,49.40
2019-02-28T16:12:50.109Z,47.71
2019-02-28T16:17:55.244Z,47.01
2019-02-28T16:23:02.565Z,46.86
2019-02-28T16:28:09.900Z,46.37
2019-02-28T16:33:29.877Z,48.87
2019-02-28T16:38:18.074Z,51.57
2019-02-28T16:43:26.629Z,48.45
2019-02-28T16:48:36.625Z,50.74
2019-02-28T16:53:41.348Z,50.28
2019-02-28T16:58:48.719Z,50.00
2019-02-28T17:04:09.037Z,52.31
2019-02-28T17:08:56.332Z,48.63
2019-02-28T17:14:03.544Z,102.62
2019-02-28T17:19:10.996Z,188.40
2019-02-28T17:29:21.538Z,77.14
2019-02-28T17:34:39.768Z,76.45
2019-02-28T17:39:40.819Z,66.11
2019-02-28T17:44:28.369Z,58.39
2019-02-28T17:49:48.705Z,67.84
2019-02-28T17:54:48.861Z,63.20
2019-02-28T17:59:38.996Z,53.55
2019-02-28T18:19:55.615Z,52.38
2019-02-28T18:25:02.962Z,52.60
2019-02-28T18:30:23.125Z,48.84
2019-02-28T18:35:11.169Z,43.85
2019-02-28T18:40:22.719Z,50.31
2019-02-28T18:45:39.754Z,47.73
2019-02-28T18:50:27.190Z,58.28
2019-02-28T18:55:35.126Z,54.76
2019-02-28T19:05:55.357Z,64.10
2019-02-28T19:10:42.640Z,66.32
2019-02-28T19:15:50.884Z,66.91
2019-02-28T19:20:58.862Z,63.78
2019-02-28T19:26:05.951Z,68.01
2019-02-28T19:31:14.275Z,62.56
2019-02-28T19:36:21.356Z,60.13
2019-02-28T19:41:30.444Z,54.34
2019-02-28T19:46:37.624Z,54.21
2019-02-28T19:51:57.770Z,50.89
2019-02-28T19:56:46.001Z,47.77
2019-02-28T20:01:53.235Z,42.49
2019-02-28T20:07:01.446Z,38.44
2019-02-28T20:12:12.045Z,34.25
2019-02-28T20:17:10.260Z,32.61
2019-02-28T20:22:17.751Z,32.97
2019-02-28T20:27:24.910Z,32.11
2019-02-28T20:32:33.178Z,31.68
2019-02-28T20:37:40.398Z,30.41
2019-02-28T20:43:00.755Z,28.96
2019-02-28T20:48:00.725Z,28.06
2019-02-28T20:52:49.051Z,26.40
2019-02-28T20:57:56.256Z,25.66
2019-02-28T21:03:05.766Z,23.15
2019-02-28T21:08:12.962Z,24.70
2019-02-28T21:13:20.129Z,24.42
2019-02-28T21:18:28.176Z,22.71
2019-02-28T21:23:36.516Z,22.74
2019-02-28T21:28:43.747Z,24.17
2019-02-28T21:33:51.220Z,23.67
2019-02-28T21:38:59.676Z,24.79
2019-02-28T21:44:07.081Z,24.35
2019-02-28T21:49:14.331Z,24.55
2019-02-28T21:54:21.672Z,26.35
2019-02-28T21:59:28.849Z,27.62
2019-02-28T22:04:36.117Z,26.61
2019-02-28T22:09:44.205Z,29.19
2019-02-28T22:14:52.538Z,28.53
2019-02-28T22:20:02.180Z,27.25
2019-02-28T22:25:09.544Z,29.26
2019-02-28T22:30:16.740Z,27.86
2019-02-28T22:35:24.243Z,27.92
2019-02-28T22:40:31.357Z,29.66
2019-02-28T22:45:39.675Z,29.86
2019-02-28T22:50:47.894Z,31.76
2019-02-28T22:55:55.587Z,30.26
2019-02-28T23:01:02.698Z,29.99
2019-02-28T23:06:10.924Z,30.44
2019-02-28T23:11:18.972Z,31.07
2019-02-28T23:16:27.183Z,30.87
2019-02-28T23:21:35.381Z,31.89
2019-02-28T23:26:42.785Z,29.68
2019-02-28T23:31:50.998Z,29.90
2019-02-28T23:36:58.410Z,29.78
2019-02-28T23:42:05.507Z,29.30
2019-02-28T23:47:13.889Z,28.41
2019-02-28T23:52:21.000Z,28.28
2019-02-28T23:57:29.489Z,27.23
